createdAt,value
2019-02-23T00:02:11.530Z,103096
2019-02-23T00:07:34.227Z,103091
2019-02-23T00:12:57.457Z,103089
2019-02-23T00:18:20.137Z,103093
2019-02-23T00:23:43.541Z,103094
2019-02-23T00:29:06.924Z,103087
2019-02-23T00:34:30.841Z,103088
2019-02-23T00:39:53.527Z,103095
2019-02-23T00:45:16.267Z,103103
2019-02-23T00:50:38.948Z,103092
2019-02-23T00:56:01.723Z,103098
2019-02-23T01:01:24.536Z,103086
2019-02-23T01:06:47.279Z,103081
2019-02-23T01:12:09.968Z,103070
2019-02-23T01:17:32.667Z,103062
2019-02-23T01:22:55.588Z,103053
2019-02-23T01:28:18.284Z,103040
2019-02-23T01:33:41.505Z,103035
2019-02-23T01:39:04.187Z,103036
2019-02-23T01:44:26.860Z,103021
2019-02-23T01:49:58.468Z,103015
2019-02-23T01:55:13.283Z,103013
2019-02-23T02:00:36.192Z,103016
2019-02-23T02:05:58.996Z,103028
2019-02-23T02:11:21.713Z,103023
2019-02-23T02:16:44.694Z,103034
2019-02-23T02:22:07.419Z,103022
2019-02-23T02:27:30.930Z,103006
2019-02-23T02:32:53.743Z,103003
2019-02-23T02:38:16.447Z,103000
2019-02-23T02:43:39.571Z,102997
2019-02-23T02:49:02.255Z,102993
2019-02-23T02:54:25.940Z,102996
2019-02-23T02:59:48.647Z,102990
2019-02-23T03:05:11.962Z,102984
2019-02-23T03:10:35.423Z,102981
2019-02-23T03:15:58.173Z,102988
2019-02-23T03:21:20.812Z,102999
2019-02-23T03:26:43.918Z,102992
2019-02-23T03:32:06.658Z,103002
2019-02-23T03:37:29.332Z,102996
2019-02-23T03:42:51.980Z,102994
2019-02-23T03:48:14.659Z,102997
2019-02-23T03:53:38.503Z,103004
2019-02-23T03:59:01.157Z,102996
2019-02-23T04:04:23.839Z,103012
2019-02-23T04:09:46.478Z,103021
2019-02-23T04:15:11.101Z,103017
2019-02-23T04:20:33.783Z,103040
2019-02-23T04:25:56.477Z,103045
2019-02-23T04:31:19.222Z,103049
2019-02-23T04:36:41.926Z,103046
2019-02-23T04:42:04.630Z,103045
2019-02-23T04:47:27.308Z,103043
2019-02-23T04:52:50.062Z,103042
2019-02-23T04:58:12.764Z,103036
2019-02-23T05:03:35.497Z,103030
2019-02-23T05:08:58.240Z,103036
2019-02-23T05:14:20.944Z,103038
2019-02-23T05:19:43.734Z,103033
2019-02-23T05:25:06.590Z,103032
2019-02-23T05:30:29.282Z,103023
2019-02-23T05:35:54.037Z,103024
2019-02-23T05:41:16.880Z,103020
2019-02-23T05:46:41.010Z,103021
2019-02-23T05:52:03.824Z,103031
2019-02-23T05:57:27.420Z,103044
2019-02-23T06:02:50.038Z,103050
2019-02-23T06:08:12.743Z,103045
2019-02-23T06:13:35.401Z,103040
2019-02-23T06:18:58.111Z,103035
2019-02-23T06:24:21.142Z,103045
2019-02-23T06:29:43.810Z,103056
2019-02-23T06:35:06.625Z,103051
2019-02-23T06:40:29.618Z,103058
2019-02-23T06:45:53.076Z,103068
2019-02-23T06:51:25.774Z,103068
2019-02-23T06:56:48.735Z,103069
2019-02-23T07:02:11.612Z,103067
2019-02-23T07:07:34.315Z,103065
2019-02-23T07:12:58.315Z,103059
2019-02-23T07:18:20.973Z,103057
2019-02-23T07:23:43.762Z,103060
2019-02-23T07:29:15.247Z,103063
2019-02-23T07:34:37.971Z,103074
2019-02-23T07:40:00.721Z,103082
2019-02-23T07:45:24.121Z,103083
2019-02-23T07:50:46.763Z,103099
2019-02-23T07:56:10.467Z,103106
2019-02-23T08:01:33.180Z,103093
2019-02-23T08:06:55.931Z,103085
2019-02-23T08:12:18.741Z,103078
2019-02-23T08:17:41.476Z,103077
2019-02-23T08:23:04.321Z,103094
2019-02-23T08:28:27.106Z,103102
2019-02-23T08:33:49.851Z,103085
2019-02-23T08:39:12.696Z,103077
2019-02-23T08:44:35.463Z,103086
2019-02-23T08:49:58.155Z,103083
2019-02-23T08:55:21.007Z,103077
2019-02-23T09:00:43.754Z,103081
2019-02-23T09:06:09.839Z,103074
2019-02-23T09:11:32.725Z,103082
2019-02-23T09:16:55.410Z,103065
2019-02-23T09:22:18.843Z,103058
2019-02-23T09:27:41.580Z,103055
2019-02-23T09:33:04.274Z,103060
2019-02-23T09:38:27.757Z,103057
2019-02-23T09:43:50.450Z,103052
2019-02-23T09:49:13.210Z,103061
2019-02-23T09:54:35.833Z,103063
2019-02-23T09:59:58.652Z,103056
2019-02-23T10:05:21.379Z,103051
2019-02-23T10:10:44.112Z,103033
2019-02-23T10:16:06.781Z,103025
2019-02-23T10:21:38.248Z,103021
2019-02-23T10:27:09.770Z,103019
2019-02-23T10:32:42.289Z,103017
2019-02-23T10:38:06.017Z,103021
2019-02-23T10:43:28.747Z,103014
2019-02-23T10:48:51.934Z,103008
2019-02-23T10:54:14.578Z,103015
2019-02-23T10:59:37.299Z,103020
2019-02-23T11:05:00.538Z,103017
2019-02-23T11:10:23.280Z,103011
2019-02-23T11:15:45.914Z,103006
2019-02-23T11:21:09.705Z,103009
2019-02-23T11:26:32.806Z,103008
2019-02-23T11:31:56.266Z,103003
2019-02-23T11:37:19.024Z,102993
2019-02-23T11:42:41.715Z,102989
2019-02-23T11:48:04.455Z,102990
2019-02-23T11:53:27.181Z,102977
2019-02-23T11:58:50.046Z,102967
2019-02-23T12:04:12.895Z,102963
2019-02-23T12:09:35.596Z,102952
2019-02-23T12:14:58.305Z,102948
2019-02-23T12:20:20.947Z,102943
2019-02-23T12:25:43.714Z,102939
2019-02-23T12:31:06.993Z,102935
2019-02-23T12:36:29.616Z,102939
2019-02-23T12:41:52.273Z,102929
2019-02-23T12:47:14.925Z,102923
2019-02-23T12:52:37.631Z,102913
2019-02-23T12:58:00.285Z,102905
2019-02-23T13:03:23.237Z,102892
2019-02-23T13:08:46.989Z,102882
2019-02-23T13:14:09.657Z,102880
2019-02-23T13:19:33.194Z,102885
2019-02-23T13:24:55.868Z,102879
2019-02-23T13:30:18.620Z,102879
2019-02-23T13:35:41.331Z,102876
2019-02-23T13:41:04.030Z,102863
2019-02-23T13:46:26.722Z,102864
2019-02-23T13:51:49.398Z,102854
2019-02-23T13:57:12.093Z,102861
2019-02-23T14:02:34.879Z,102854
2019-02-23T14:07:57.635Z,102856
2019-02-23T14:13:20.387Z,102855
2019-02-23T14:18:43.046Z,102862
2019-02-23T14:24:06.032Z,102855
2019-02-23T14:29:28.716Z,102850
2019-02-23T14:34:52.006Z,102856
2019-02-23T14:40:14.796Z,102852
2019-02-23T14:45:37.469Z,102842
2019-02-23T14:51:00.208Z,102836
2019-02-23T14:56:22.914Z,102834
2019-02-23T15:01:45.635Z,102839
2019-02-23T15:07:08.414Z,102844
2019-02-23T15:12:31.445Z,102843
2019-02-23T15:17:54.302Z,102838
2019-02-23T15:23:18.049Z,102837
2019-02-23T15:28:40.823Z,102839
2019-02-23T15:34:03.548Z,102841
2019-02-23T15:39:26.285Z,102836
2019-02-23T15:44:48.952Z,102827
2019-02-23T15:50:13.160Z,102820
2019-02-23T15:55:34.288Z,102824
2019-02-23T16:00:57.023Z,102831
2019-02-23T16:06:20.187Z,102830
2019-02-23T16:11:45.217Z,102832
2019-02-23T16:17:07.376Z,102823
2019-02-23T16:22:30.167Z,102826
2019-02-23T16:27:52.969Z,102828
2019-02-23T16:33:15.675Z,102834
2019-02-23T16:38:40.062Z,102838
2019-02-23T16:44:02.838Z,102833
2019-02-23T16:49:25.603Z,102833
2019-02-23T16:54:48.305Z,102840
2019-02-23T17:00:11.175Z,102851
2019-02-23T17:05:33.933Z,102859
2019-02-23T17:10:57.645Z,102872
2019-02-23T17:16:20.480Z,102870
2019-02-23T17:21:43.331Z,102872
2019-02-23T17:27:06.064Z,102876
2019-02-23T17:32:29.674Z,102875
2019-02-23T17:37:52.539Z,102879
2019-02-23T17:43:15.260Z,102881
2019-02-23T17:48:38.204Z,102877
2019-02-23T17:54:00.913Z,102873
2019-02-23T17:59:23.668Z,102870
2019-02-23T18:04:46.421Z,102874
2019-02-23T18:10:09.189Z,102871
2019-02-23T18:15:31.886Z,102875
2019-02-23T18:20:54.719Z,102876
2019-02-23T18:26:20.884Z,102872
2019-02-23T18:31:40.765Z,102868
2019-02-23T18:37:03.988Z,102863
2019-02-23T18:42:27.666Z,102864
2019-02-23T18:47:50.419Z,102858
2019-02-23T18:53:13.310Z,102864
2019-02-23T18:58:36.143Z,102865
2019-02-23T19:03:58.879Z,102866
2019-02-23T19:09:22.064Z,102866
2019-02-23T19:14:45.147Z,102857
2019-02-23T19:20:07.743Z,102869
2019-02-23T19:25:30.508Z,102864
2019-02-23T19:30:53.183Z,102864
2019-02-23T19:36:15.893Z,102862
2019-02-23T19:41:38.769Z,102860
2019-02-23T19:47:01.532Z,102860
2019-02-23T19:52:24.245Z,102853
2019-02-23T19:57:46.898Z,102856
2019-02-23T20:03:09.788Z,102850
2019-02-23T20:08:32.451Z,102842
2019-02-23T20:13:55.137Z,102838
2019-02-23T20:19:19.645Z,102839
2019-02-23T20:24:40.469Z,102841
2019-02-23T20:30:03.155Z,102844
2019-02-23T20:35:26.261Z,102840
2019-02-23T20:40:50.621Z,102853
2019-02-23T20:46:14.072Z,102855
2019-02-23T20:51:36.876Z,102849
2019-02-23T20:57:04.173Z,102854
2019-02-23T21:02:23.429Z,102851
2019-02-23T21:07:46.206Z,102844
2019-02-23T21:13:08.876Z,102842
2019-02-23T21:18:32.525Z,102840
2019-02-23T21:23:56.015Z,102848
2019-02-23T21:29:19.607Z,102838
2019-02-23T21:34:44.199Z,102842
2019-02-23T21:40:07.507Z,102845
2019-02-23T21:45:30.238Z,102850
2019-02-23T21:50:52.953Z,102853
2019-02-23T21:56:16.147Z,102854
2019-02-23T22:01:39.499Z,102851
2019-02-23T22:07:03.029Z,102842
2019-02-23T22:12:25.673Z,102846
2019-02-23T22:17:48.679Z,102853
2019-02-23T22:23:11.266Z,102857
2019-02-23T22:28:33.938Z,102859
2019-02-23T22:33:56.643Z,102852
2019-02-23T22:39:19.312Z,102850
2019-02-23T22:44:42.030Z,102856
2019-02-23T22:50:04.858Z,102849
2019-02-23T22:55:27.522Z,102853
2019-02-23T23:00:50.549Z,102853
2019-02-23T23:06:13.303Z,102845
2019-02-23T23:11:36.251Z,102850
2019-02-23T23:16:58.941Z,102843
2019-02-23T23:22:21.881Z,102839
2019-02-23T23:27:49.204Z,102836
2019-02-23T23:33:07.270Z,102834
2019-02-23T23:38:30.033Z,102830
2019-02-23T23:43:52.715Z,102835
2019-02-23T23:49:15.424Z,102830
2019-02-23T23:54:38.232Z,102826
